Time;durP1;ratioP1;P1;durP2;ratioP2;P2;SDS_P1;SDS_P2;PMS_P1;PMS_P2;Temp;Humidity;BMP_temperature;BMP_pressure;BME280_temperature;BME280_humidity;BME280_pressure;Samples;Min_cycle;Max_cycle;Signal;HPM_P1;HPM_P2
2024/01/19 00:00:19;;;;;;;28.17;14.50;;;-1.90;99.90;;;;;;4949727;28;20045;-79
2024/01/19 00:02:44;;;;;;;39.65;19.73;;;-1.70;99.90;;;;;;4980812;28;20058;-79
2024/01/19 00:05:10;;;;;;;33.30;17.42;;;-1.80;99.90;;;;;;4949065;28;20677;-79
2024/01/19 00:07:36;;;;;;;29.75;16.42;;;-1.90;99.90;;;;;;4951740;28;20034;-80
2024/01/19 00:10:01;;;;;;;37.03;19.73;;;-1.80;99.90;;;;;;4948829;28;20060;-79
2024/01/19 00:12:27;;;;;;;31.77;16.10;;;-1.90;99.90;;;;;;4964503;28;20042;-80
2024/01/19 00:14:52;;;;;;;39.88;19.65;;;-1.90;99.90;;;;;;4961903;28;20030;-80
2024/01/19 00:17:18;;;;;;;40.47;20.40;;;-2.00;99.90;;;;;;4945548;28;20033;-80
2024/01/19 00:19:44;;;;;;;45.90;20.48;;;-2.10;99.90;;;;;;4960930;28;20127;-80
2024/01/19 00:22:09;;;;;;;28.00;15.18;;;-2.20;99.90;;;;;;4947492;28;20034;-79
2024/01/19 00:24:35;;;;;;;37.95;18.63;;;-2.20;99.90;;;;;;4965018;28;20042;-79
2024/01/19 00:27:00;;;;;;;30.75;15.43;;;-2.10;99.90;;;;;;4948669;28;20072;-79
2024/01/19 00:29:26;;;;;;;25.15;13.73;;;-2.00;99.90;;;;;;4954509;28;20408;-79
2024/01/19 00:31:51;;;;;;;33.72;17.15;;;-2.20;99.90;;;;;;4954954;28;20026;-79
2024/01/19 00:34:17;;;;;;;31.58;15.23;;;-2.20;99.90;;;;;;4940339;28;20045;-79
2024/01/19 00:36:43;;;;;;;34.40;18.42;;;-2.10;99.90;;;;;;4955163;28;20128;-79
2024/01/19 00:39:08;;;;;;;27.52;15.93;;;-2.00;99.90;;;;;;4954903;28;20503;-80
2024/01/19 00:41:34;;;;;;;29.83;16.80;;;-2.00;99.90;;;;;;4969617;28;20053;-80
2024/01/19 00:43:59;;;;;;;33.80;18.13;;;-2.00;99.90;;;;;;4967743;28;20064;-80
2024/01/19 00:46:25;;;;;;;33.42;16.30;;;-1.90;99.90;;;;;;4982731;28;20042;-80
2024/01/19 00:48:51;;;;;;;28.02;15.40;;;-2.10;99.90;;;;;;4983747;28;20038;-80
2024/01/19 00:51:16;;;;;;;24.40;14.60;;;-2.10;99.90;;;;;;4950635;28;20407;-79
2024/01/19 00:53:43;;;;;;;25.58;13.15;;;-2.10;99.90;;;;;;4965822;28;20673;-80
2024/01/19 00:56:08;;;;;;;31.45;18.58;;;-2.10;99.90;;;;;;4952239;28;20511;-80
2024/01/19 00:58:35;;;;;;;26.42;15.43;;;-2.10;99.90;;;;;;4967428;28;20106;-79
2024/01/19 01:01:00;;;;;;;30.77;17.17;;;-2.10;99.90;;;;;;4966985;28;20030;-80
2024/01/19 01:03:27;;;;;;;32.60;17.60;;;-2.10;99.90;;;;;;4967325;28;20037;-80
2024/01/19 01:05:57;;;;;;;28.70;14.82;;;-2.00;99.90;;;;;;4966608;28;20041;-80
2024/01/19 01:08:26;;;;;;;31.90;20.33;;;-1.90;99.90;;;;;;4964853;28;20496;-79
2024/01/19 01:10:52;;;;;;;22.50;12.88;;;-2.10;99.90;;;;;;4949566;28;20051;-79
2024/01/19 01:13:17;;;;;;;29.80;18.20;;;-2.20;99.90;;;;;;4961384;28;20038;-79
2024/01/19 01:15:43;;;;;;;33.45;17.75;;;-2.40;99.90;;;;;;4964060;28;20041;-79
2024/01/19 01:18:09;;;;;;;30.60;17.95;;;-2.50;99.90;;;;;;4950515;28;20121;-79
2024/01/19 01:20:34;;;;;;;26.40;15.77;;;-2.70;99.90;;;;;;4962035;28;20392;-79
2024/01/19 01:23:00;;;;;;;28.98;16.92;;;-2.50;99.90;;;;;;4964031;28;20423;-79
2024/01/19 01:25:25;;;;;;;28.55;17.02;;;-2.60;99.90;;;;;;4962959;28;20514;-80
2024/01/19 01:27:51;;;;;;;27.08;16.42;;;-2.50;99.90;;;;;;4948484;28;20534;-79
2024/01/19 01:30:17;;;;;;;31.38;17.30;;;-2.60;99.90;;;;;;4962257;28;20026;-79
2024/01/19 01:32:43;;;;;;;20.95;12.18;;;-2.50;99.90;;;;;;4964239;28;20030;-79
2024/01/19 01:35:08;;;;;;;23.83;13.52;;;-2.20;99.90;;;;;;4967641;28;20772;-80
2024/01/19 01:37:34;;;;;;;24.65;14.55;;;-2.20;99.90;;;;;;4963899;28;20152;-79
2024/01/19 01:39:59;;;;;;;26.40;13.52;;;-2.30;99.90;;;;;;4963664;28;20041;-79
2024/01/19 01:42:25;;;;;;;26.73;16.25;;;-2.30;99.90;;;;;;4945679;28;20048;-80
2024/01/19 01:44:51;;;;;;;24.77;13.68;;;-2.30;99.90;;;;;;4951891;28;20121;-79
2024/01/19 01:47:16;;;;;;;31.40;17.90;;;-2.60;99.90;;;;;;4965104;28;20040;-79
2024/01/19 01:49:42;;;;;;;24.60;14.85;;;-2.70;99.90;;;;;;4966580;28;20042;-80
2024/01/19 01:52:08;;;;;;;28.20;16.48;;;-2.80;99.90;;;;;;4961730;28;20958;-79
2024/01/19 01:54:34;;;;;;;20.90;13.30;;;-2.90;99.90;;;;;;4966530;28;20053;-79
2024/01/19 01:57:00;;;;;;;24.90;13.57;;;-2.70;99.90;;;;;;4943591;28;20042;-79
2024/01/19 01:59:26;;;;;;;25.15;12.95;;;-2.70;99.90;;;;;;4925808;28;20041;-79
2024/01/19 02:01:51;;;;;;;25.52;14.30;;;-2.60;99.90;;;;;;4966266;28;20030;-78
2024/01/19 02:04:17;;;;;;;33.47;17.58;;;-2.50;99.90;;;;;;4962108;28;20041;-78
2024/01/19 02:06:42;;;;;;;18.10;8.20;;;-2.70;99.90;;;;;;4968101;28;20076;-79
2024/01/19 02:09:08;;;;;;;27.67;16.33;;;-2.50;99.90;;;;;;4950874;28;20037;-79
2024/01/19 02:11:34;;;;;;;15.38;7.20;;;-2.50;99.90;;;;;;4947637;28;20415;-79
2024/01/19 02:13:59;;;;;;;30.35;15.38;;;-2.50;99.90;;;;;;4966219;28;20637;-78
2024/01/19 02:16:25;;;;;;;28.33;13.40;;;-2.40;99.90;;;;;;4947401;28;20582;-80
2024/01/19 02:18:52;;;;;;;24.70;13.00;;;-2.30;99.90;;;;;;4979320;28;20113;-79
2024/01/19 02:21:21;;;;;;;35.28;17.08;;;-2.40;99.90;;;;;;4980414;28;20045;-78
2024/01/19 02:24:02;;;;;;;27.70;14.20;;;-2.20;99.90;;;;;;4964754;28;20038;-78
2024/01/19 02:26:31;;;;;;;33.13;15.88;;;-2.20;99.90;;;;;;4979735;28;20038;-79
2024/01/19 02:28:57;;;;;;;15.10;6.68;;;-2.10;99.90;;;;;;4951913;28;20045;-79
2024/01/19 02:31:23;;;;;;;10.73;6.30;;;-2.10;99.90;;;;;;4964145;28;20026;-79
2024/01/19 02:33:48;;;;;;;32.65;16.20;;;-2.20;99.90;;;;;;4948660;28;20109;-78
2024/01/19 02:36:14;;;;;;;22.67;11.13;;;-2.20;99.90;;;;;;4964274;28;20547;-77
2024/01/19 02:38:39;;;;;;;24.75;11.63;;;-2.30;99.90;;;;;;4961576;28;20678;-79
2024/01/19 02:41:05;;;;;;;34.25;16.35;;;-2.20;99.90;;;;;;4952404;28;20041;-78
2024/01/19 02:43:31;;;;;;;18.88;11.85;;;-2.00;99.90;;;;;;4960554;28;20042;-78
2024/01/19 02:45:56;;;;;;;13.05;8.25;;;-2.00;99.90;;;;;;4952255;28;20105;-77
2024/01/19 02:48:22;;;;;;;38.35;17.90;;;-2.10;99.90;;;;;;4965745;28;20034;-78
2024/01/19 02:50:47;;;;;;;41.83;20.02;;;-2.00;99.90;;;;;;4962574;28;20037;-77
2024/01/19 02:53:13;;;;;;;26.40;12.57;;;-2.00;99.90;;;;;;4956809;28;20104;-77
2024/01/19 02:55:38;;;;;;;40.67;17.65;;;-1.90;99.90;;;;;;4962105;28;20384;-77
2024/01/19 02:58:04;;;;;;;17.83;9.65;;;-1.90;99.90;;;;;;4945379;28;20076;-77
2024/01/19 03:00:29;;;;;;;24.77;11.35;;;-1.90;99.90;;;;;;4980466;28;20566;-76
2024/01/19 03:02:55;;;;;;;33.88;13.63;;;-1.90;99.90;;;;;;4949598;28;20045;-77
2024/01/19 03:05:20;;;;;;;33.85;15.23;;;-2.00;99.90;;;;;;4944782;28;20019;-76
2024/01/19 03:07:46;;;;;;;24.65;11.88;;;-1.90;99.90;;;;;;4978055;28;20428;-77
2024/01/19 03:10:12;;;;;;;40.75;16.08;;;-1.80;99.90;;;;;;4965285;28;20387;-77
2024/01/19 03:12:37;;;;;;;28.63;12.32;;;-1.80;99.90;;;;;;4965026;28;20984;-76
2024/01/19 03:15:04;;;;;;;8.65;6.13;;;-1.70;99.90;;;;;;4963821;28;20030;-77
2024/01/19 03:17:29;;;;;;;30.15;14.25;;;-1.80;99.90;;;;;;4985333;28;20026;-76
2024/01/19 03:19:55;;;;;;;30.25;12.65;;;-1.70;99.90;;;;;;4964116;28;20515;-77
2024/01/19 03:22:20;;;;;;;16.88;7.22;;;-1.70;99.90;;;;;;4978893;28;20105;-77
2024/01/19 03:24:46;;;;;;;28.00;11.07;;;-1.70;99.90;;;;;;4961982;28;20041;-78
2024/01/19 03:27:12;;;;;;;26.65;11.30;;;-1.70;99.90;;;;;;4951439;28;20057;-77
2024/01/19 03:29:38;;;;;;;34.92;13.70;;;-1.70;99.90;;;;;;4961920;28;20845;-76
2024/01/19 03:32:03;;;;;;;41.05;18.02;;;-1.70;99.90;;;;;;4960381;28;20069;-77
2024/01/19 03:34:29;;;;;;;24.15;9.68;;;-1.70;99.90;;;;;;4948144;28;20149;-78
2024/01/19 03:36:56;;;;;;;44.28;16.58;;;-1.70;99.90;;;;;;4961314;28;20164;-78
2024/01/19 03:39:23;;;;;;;27.73;8.98;;;-1.70;99.90;;;;;;4947937;28;20026;-78
2024/01/19 03:41:48;;;;;;;38.90;14.25;;;-1.60;99.90;;;;;;4977346;28;20042;-78
2024/01/19 03:44:14;;;;;;;23.67;9.30;;;-1.70;99.90;;;;;;4962485;28;20033;-78
2024/01/19 03:46:39;;;;;;;23.77;10.38;;;-1.60;99.90;;;;;;4976854;28;20049;-78
2024/01/19 03:49:05;;;;;;;17.88;8.98;;;-1.60;99.90;;;;;;4962230;28;20487;-78
2024/01/19 03:51:30;;;;;;;24.08;9.35;;;-1.70;99.90;;;;;;4963840;28;20582;-78
2024/01/19 03:53:56;;;;;;;20.65;8.68;;;-1.60;99.90;;;;;;4963554;28;20655;-78
2024/01/19 03:56:21;;;;;;;29.25;13.75;;;-1.60;99.90;;;;;;4949557;28;20053;-79
2024/01/19 03:58:47;;;;;;;25.80;9.57;;;-1.70;99.90;;;;;;4965498;28;20137;-78
2024/01/19 04:01:15;;;;;;;40.92;17.63;;;-1.60;99.90;;;;;;4953065;28;20060;-79
2024/01/19 04:03:40;;;;;;;41.45;17.13;;;-1.60;99.90;;;;;;4955242;28;20690;-78
2024/01/19 04:06:06;;;;;;;18.98;9.00;;;-1.50;99.90;;;;;;4966794;28;20121;-78
2024/01/19 04:08:32;;;;;;;28.60;11.55;;;-1.50;99.90;;;;;;4951317;28;20029;-78
2024/01/19 04:10:57;;;;;;;34.40;13.38;;;-1.50;99.90;;;;;;4960315;28;20120;-78
2024/01/19 04:13:23;;;;;;;37.88;12.93;;;-1.40;99.90;;;;;;4946843;28;20030;-78
2024/01/19 04:15:51;;;;;;;36.55;15.10;;;-1.50;99.90;;;;;;4948874;28;20034;-79
2024/01/19 04:18:16;;;;;;;48.08;19.40;;;-1.50;99.90;;;;;;4965678;28;20033;-78
2024/01/19 04:20:42;;;;;;;24.75;12.13;;;-1.40;99.90;;;;;;4960284;28;20049;-78
2024/01/19 04:23:07;;;;;;;44.00;18.48;;;-1.50;99.90;;;;;;4945923;28;20041;-78
2024/01/19 04:25:33;;;;;;;29.17;12.55;;;-1.50;99.90;;;;;;4945970;28;20448;-79
2024/01/19 04:27:59;;;;;;;40.88;15.93;;;-1.50;99.90;;;;;;4960334;28;20069;-77
2024/01/19 04:30:24;;;;;;;20.60;6.57;;;-1.40;99.90;;;;;;4947346;28;20037;-79
2024/01/19 04:32:50;;;;;;;31.17;13.07;;;-1.40;99.90;;;;;;4949049;28;20113;-77
2024/01/19 04:35:15;;;;;;;14.77;4.95;;;-1.30;99.90;;;;;;4964520;28;20645;-77
2024/01/19 04:37:41;;;;;;;48.15;18.40;;;-1.30;99.90;;;;;;4960463;28;20821;-78
2024/01/19 04:40:07;;;;;;;21.30;8.55;;;-1.30;99.90;;;;;;4972665;28;20510;-77
2024/01/19 04:42:32;;;;;;;30.08;13.30;;;-1.40;99.90;;;;;;4952070;28;20101;-78
2024/01/19 04:44:58;;;;;;;37.92;16.05;;;-1.40;99.90;;;;;;4961306;28;20052;-78
2024/01/19 04:47:24;;;;;;;48.83;17.35;;;-1.40;99.90;;;;;;4950227;28;20861;-78
2024/01/19 04:49:49;;;;;;;34.38;14.85;;;-1.30;99.90;;;;;;4949918;28;20045;-78
2024/01/19 04:52:15;;;;;;;23.52;10.13;;;-1.30;99.90;;;;;;4959006;28;20042;-78
2024/01/19 04:54:40;;;;;;;17.00;7.55;;;-1.30;99.90;;;;;;4961565;28;20133;-78
2024/01/19 04:57:06;;;;;;;27.17;10.07;;;-1.30;99.90;;;;;;4973479;28;20026;-78
2024/01/19 04:59:32;;;;;;;26.25;12.85;;;-1.30;99.90;;;;;;4960045;28;20069;-77
2024/01/19 05:01:57;;;;;;;14.73;6.78;;;-1.30;99.90;;;;;;4978273;28;20108;-79
2024/01/19 05:04:23;;;;;;;27.52;8.50;;;-1.30;99.90;;;;;;4948135;28;20049;-78
2024/01/19 05:06:48;;;;;;;42.58;15.52;;;-1.30;99.90;;;;;;4966331;28;20053;-78
2024/01/19 05:09:14;;;;;;;10.88;4.30;;;-1.30;99.90;;;;;;4959625;28;20045;-77
2024/01/19 05:11:40;;;;;;;41.25;15.07;;;-1.20;99.90;;;;;;4947003;28;20198;-79
2024/01/19 05:14:06;;;;;;;28.55;11.20;;;-1.20;99.90;;;;;;4960933;28;20049;-78
2024/01/19 05:16:32;;;;;;;45.47;16.27;;;-1.20;99.90;;;;;;4976524;28;20030;-77
2024/01/19 05:18:58;;;;;;;30.15;11.73;;;-1.20;99.90;;;;;;4976309;28;20100;-78
2024/01/19 05:21:24;;;;;;;33.75;12.82;;;-1.20;99.90;;;;;;4966576;28;20034;-79
2024/01/19 05:23:49;;;;;;;21.20;9.20;;;-1.10;99.90;;;;;;4957590;28;20148;-78
2024/01/19 05:26:15;;;;;;;52.42;20.17;;;-1.20;99.90;;;;;;4968074;28;20030;-78
2024/01/19 05:28:41;;;;;;;38.17;12.68;;;-1.10;99.90;;;;;;4950770;28;24820;-78
2024/01/19 05:31:06;;;;;;;44.03;15.65;;;-1.10;99.90;;;;;;4964332;28;20611;-77
2024/01/19 05:33:32;;;;;;;42.95;17.05;;;-1.10;99.90;;;;;;4967104;28;20048;-78
2024/01/19 05:35:58;;;;;;;34.67;11.65;;;-0.90;99.90;;;;;;4948204;28;20112;-78
2024/01/19 05:38:23;;;;;;;40.88;13.85;;;-1.10;99.90;;;;;;4965829;28;20054;-78
2024/01/19 05:40:49;;;;;;;26.58;9.20;;;-1.10;99.90;;;;;;4963493;28;20045;-78
2024/01/19 05:43:14;;;;;;;20.83;8.75;;;-1.10;99.90;;;;;;4966963;28;20066;-78
2024/01/19 05:45:40;;;;;;;48.50;19.35;;;-1.10;99.90;;;;;;4966497;28;20117;-78
2024/01/19 05:48:05;;;;;;;28.15;10.85;;;-1.00;99.90;;;;;;4949196;28;20535;-78
2024/01/19 05:50:31;;;;;;;25.98;11.80;;;-0.90;99.90;;;;;;4951404;28;20052;-78
2024/01/19 05:52:57;;;;;;;28.00;11.18;;;-1.00;99.90;;;;;;4953562;28;20104;-77
2024/01/19 05:55:23;;;;;;;34.88;10.55;;;-1.00;99.90;;;;;;4964123;28;20661;-78
2024/01/19 05:57:48;;;;;;;37.47;14.93;;;-1.00;99.90;;;;;;4966415;28;20034;-77
2024/01/19 06:00:14;;;;;;;46.22;16.08;;;-1.00;99.90;;;;;;4967635;28;20034;-78
2024/01/19 06:02:39;;;;;;;14.38;6.15;;;-1.00;99.90;;;;;;4950149;28;20045;-77
2024/01/19 06:05:05;;;;;;;47.80;18.45;;;-1.00;99.90;;;;;;4981808;28;20499;-77
2024/01/19 06:07:32;;;;;;;28.30;11.82;;;-1.00;99.90;;;;;;4968136;28;20563;-77
2024/01/19 06:09:58;;;;;;;38.92;14.00;;;-1.00;99.90;;;;;;4966618;28;20166;-77
2024/01/19 06:12:24;;;;;;;41.38;16.38;;;-1.00;99.90;;;;;;4960650;28;20193;-77
2024/01/19 06:14:49;;;;;;;29.08;11.23;;;-0.90;99.90;;;;;;4982409;28;20551;-82
2024/01/19 06:17:15;;;;;;;34.13;13.50;;;-0.90;99.90;;;;;;4953643;28;20057;-82
2024/01/19 06:19:41;;;;;;;27.67;10.90;;;-0.90;99.90;;;;;;4954785;28;20034;-81
2024/01/19 06:22:06;;;;;;;31.95;12.88;;;-0.90;99.90;;;;;;4971414;28;20030;-82
2024/01/19 06:24:35;;;;;;;30.77;12.43;;;-0.80;99.90;;;;;;4968079;28;20052;-81
2024/01/19 06:27:00;;;;;;;46.60;17.55;;;-0.90;99.90;;;;;;4971277;28;20041;-81
2024/01/19 06:29:26;;;;;;;24.58;8.88;;;-0.90;99.90;;;;;;4968696;28;20034;-82
2024/01/19 06:31:52;;;;;;;22.42;9.52;;;-0.80;99.90;;;;;;4984270;28;20087;-81
2024/01/19 06:34:18;;;;;;;25.55;11.30;;;-0.80;99.90;;;;;;4971103;28;20034;-82
2024/01/19 06:36:46;;;;;;;38.88;13.40;;;-0.80;99.90;;;;;;4954324;28;20169;-81
2024/01/19 06:39:12;;;;;;;33.83;12.80;;;-0.90;99.90;;;;;;4972749;28;20083;-81
2024/01/19 06:41:44;;;;;;;50.13;19.20;;;-0.80;99.90;;;;;;4983076;28;20600;-82
2024/01/19 06:44:12;;;;;;;21.25;7.47;;;-0.80;99.90;;;;;;4956251;28;20030;-82
2024/01/19 06:46:38;;;;;;;45.55;15.00;;;-0.80;99.90;;;;;;4954751;28;20033;-82
2024/01/19 06:49:04;;;;;;;21.92;7.90;;;-0.80;99.90;;;;;;4949219;28;20576;-82
2024/01/19 06:51:32;;;;;;;37.22;16.20;;;-0.80;99.90;;;;;;4979717;28;20120;-82
2024/01/19 06:53:58;;;;;;;53.25;21.77;;;-0.80;99.90;;;;;;4966155;28;20050;-81
2024/01/19 06:56:23;;;;;;;29.23;5.95;;;-0.80;99.90;;;;;;4953513;28;20088;-81
2024/01/19 06:58:49;;;;;;;43.00;16.35;;;-0.80;99.90;;;;;;4962696;28;20480;-82
2024/01/19 07:01:14;;;;;;;23.35;7.93;;;-0.80;99.90;;;;;;4966753;28;20043;-81
2024/01/19 07:03:40;;;;;;;40.90;14.30;;;-0.80;99.90;;;;;;4966950;28;21029;-82
2024/01/19 07:06:06;;;;;;;35.05;13.05;;;-0.80;99.90;;;;;;4952647;28;20076;-81
2024/01/19 07:08:31;;;;;;;35.40;14.55;;;-0.80;99.90;;;;;;4963668;28;21401;-81
2024/01/19 07:10:59;;;;;;;42.45;15.85;;;-0.80;99.90;;;;;;4965153;28;20044;-82
2024/01/19 07:13:25;;;;;;;36.35;15.80;;;-0.80;99.90;;;;;;4949267;28;20492;-82
2024/01/19 07:15:51;;;;;;;55.15;26.00;;;-0.80;99.90;;;;;;4950561;28;20034;-82
2024/01/19 07:18:16;;;;;;;54.05;23.20;;;-0.70;99.90;;;;;;4979144;28;20065;-81
2024/01/19 07:20:42;;;;;;;34.78;14.10;;;-0.70;99.90;;;;;;4962686;28;20037;-83
2024/01/19 07:23:08;;;;;;;58.53;23.55;;;-0.80;99.90;;;;;;4951526;28;20085;-81
2024/01/19 07:25:34;;;;;;;43.63;18.17;;;-0.70;99.90;;;;;;4950213;28;20030;-83
2024/01/19 07:27:59;;;;;;;39.47;16.08;;;-0.70;99.90;;;;;;4978497;28;20070;-80
2024/01/19 07:30:26;;;;;;;10.82;6.72;;;-0.60;99.90;;;;;;4965818;28;20054;-82
2024/01/19 07:32:51;;;;;;;35.83;13.73;;;-0.60;99.90;;;;;;4964632;28;20029;-82
2024/01/19 07:35:17;;;;;;;40.85;16.38;;;-0.60;99.90;;;;;;4949555;28;20511;-83
2024/01/19 07:37:43;;;;;;;20.40;8.93;;;-0.60;99.90;;;;;;4964000;28;20022;-78
2024/01/19 07:40:08;;;;;;;32.00;14.63;;;-0.60;99.90;;;;;;4966272;28;20080;-78
2024/01/19 07:42:34;;;;;;;28.52;14.43;;;-0.60;99.90;;;;;;4963417;28;20042;-78
2024/01/19 07:44:59;;;;;;;24.50;11.10;;;-0.60;99.90;;;;;;4962705;28;20122;-79
2024/01/19 07:47:25;;;;;;;38.65;18.88;;;-0.60;99.90;;;;;;4959738;28;20407;-81
2024/01/19 07:49:52;;;;;;;35.15;15.75;;;-0.60;99.90;;;;;;4951756;28;20056;-80
2024/01/19 07:52:18;;;;;;;34.78;13.18;;;-0.60;99.90;;;;;;4962840;28;20034;-79
2024/01/19 07:54:44;;;;;;;47.17;21.40;;;-0.60;99.90;;;;;;4976448;28;20033;-79
2024/01/19 07:57:09;;;;;;;33.80;14.65;;;-0.50;99.90;;;;;;4959735;28;20526;-79
2024/01/19 07:59:35;;;;;;;42.65;19.80;;;-0.60;99.90;;;;;;4959888;28;20455;-79
2024/01/19 08:02:02;;;;;;;38.38;17.83;;;-0.60;99.90;;;;;;4965268;28;20147;-79
2024/01/19 08:04:27;;;;;;;19.50;9.15;;;-0.60;99.90;;;;;;4967467;28;20129;-81
2024/01/19 08:06:53;;;;;;;37.85;16.52;;;-0.50;99.90;;;;;;4961518;28;20153;-79
2024/01/19 08:09:18;;;;;;;40.50;20.73;;;-0.60;99.90;;;;;;4963602;28;20513;-80
2024/01/19 08:11:44;;;;;;;38.15;17.00;;;-0.50;99.90;;;;;;4963171;28;20061;-80
2024/01/19 08:14:10;;;;;;;25.83;14.50;;;-0.50;99.90;;;;;;4963161;28;20038;-82
2024/01/19 08:16:36;;;;;;;41.17;20.08;;;-0.50;99.90;;;;;;4944289;28;20041;-84
2024/01/19 08:19:02;;;;;;;26.95;12.13;;;-0.40;99.90;;;;;;4976912;28;20498;-82
2024/01/19 08:21:28;;;;;;;40.35;20.65;;;-0.40;99.90;;;;;;4946750;28;20047;-82
2024/01/19 08:23:53;;;;;;;45.15;22.15;;;-0.40;99.90;;;;;;4963005;28;20104;-82
2024/01/19 08:26:19;;;;;;;32.17;14.65;;;-0.40;99.90;;;;;;4963077;28;20033;-84
2024/01/19 08:28:46;;;;;;;45.05;21.23;;;-0.40;99.90;;;;;;4947579;28;20034;-83
2024/01/19 08:31:12;;;;;;;40.15;21.77;;;-0.40;99.90;;;;;;4964201;28;20125;-81
2024/01/19 08:33:38;;;;;;;40.58;20.75;;;-0.40;99.90;;;;;;4962200;28;20038;-86
2024/01/19 08:36:04;;;;;;;45.33;20.27;;;-0.40;99.90;;;;;;4940077;28;20041;-86
2024/01/19 08:38:29;;;;;;;48.20;22.05;;;-0.40;99.90;;;;;;4965147;28;20036;-81
2024/01/19 08:40:55;;;;;;;47.85;23.92;;;-0.30;99.90;;;;;;4947084;28;20116;-81
2024/01/19 08:43:20;;;;;;;18.38;9.05;;;-0.30;99.90;;;;;;4952612;28;20415;-81
2024/01/19 08:45:46;;;;;;;36.15;16.08;;;-0.30;99.90;;;;;;4966751;28;20033;-81
2024/01/19 08:48:12;;;;;;;44.22;20.90;;;-0.30;99.90;;;;;;4965547;28;20026;-82
2024/01/19 08:50:38;;;;;;;10.30;6.55;;;-0.30;99.90;;;;;;4980667;28;20747;-81
2024/01/19 08:53:04;;;;;;;29.02;14.55;;;-0.30;99.90;;;;;;4968100;28;20106;-81
2024/01/19 08:55:29;;;;;;;34.30;17.42;;;-0.20;99.90;;;;;;4966158;28;20022;-81
2024/01/19 08:57:55;;;;;;;23.10;9.43;;;-0.20;99.90;;;;;;4976146;28;20019;-81
2024/01/19 09:00:21;;;;;;;36.53;16.75;;;-0.30;99.90;;;;;;4976186;28;20185;-81
2024/01/19 09:02:48;;;;;;;22.02;10.10;;;-0.20;99.90;;;;;;4964932;28;20034;-82
2024/01/19 09:05:14;;;;;;;48.63;25.08;;;-0.20;99.90;;;;;;4960321;28;20565;-81
2024/01/19 09:07:40;;;;;;;39.28;17.15;;;-0.20;99.90;;;;;;4962968;28;20041;-81
2024/01/19 09:10:07;;;;;;;31.02;14.63;;;-0.10;99.90;;;;;;4977081;28;20045;-81
2024/01/19 09:12:32;;;;;;;47.38;21.63;;;-0.20;99.90;;;;;;4965004;28;20041;-81
2024/01/19 09:14:58;;;;;;;25.65;11.27;;;-0.10;99.90;;;;;;4952649;28;20255;-81
2024/01/19 09:17:23;;;;;;;33.42;17.48;;;-0.10;99.90;;;;;;4958641;28;20412;-82
2024/01/19 09:19:49;;;;;;;52.35;24.75;;;-0.10;99.90;;;;;;4960562;28;20132;-82
2024/01/19 09:22:15;;;;;;;49.47;23.63;;;-0.10;99.90;;;;;;4948333;28;20034;-81
2024/01/19 09:24:40;;;;;;;55.25;26.15;;;0.00;99.90;;;;;;4951971;28;20053;-81
2024/01/19 09:27:06;;;;;;;13.25;7.28;;;0.00;99.90;;;;;;4947654;28;20528;-80
2024/01/19 09:29:31;;;;;;;29.70;12.65;;;-0.10;99.90;;;;;;4950517;28;20034;-81
2024/01/19 09:31:57;;;;;;;41.70;16.63;;;0.00;99.90;;;;;;4944550;28;20040;-81
2024/01/19 09:34:22;;;;;;;34.25;14.95;;;0.00;99.90;;;;;;4951668;28;20113;-81
2024/01/19 09:36:48;;;;;;;60.53;29.58;;;0.00;99.90;;;;;;4958501;28;20091;-81
2024/01/19 09:39:15;;;;;;;51.65;25.85;;;0.00;99.90;;;;;;4961263;28;20136;-81
2024/01/19 09:41:49;;;;;;;52.92;22.05;;;0.00;99.90;;;;;;4950784;28;20109;-81
2024/01/19 09:44:16;;;;;;;27.13;11.82;;;0.00;99.90;;;;;;4962121;28;20050;-81
2024/01/19 09:46:45;;;;;;;28.42;13.25;;;0.00;99.90;;;;;;4949603;28;20069;-81
2024/01/19 09:49:14;;;;;;;41.78;20.00;;;0.00;99.90;;;;;;4970584;28;20030;-81
2024/01/19 09:51:58;;;;;;;21.88;10.38;;;0.10;99.90;;;;;;4961037;28;20511;-81
2024/01/19 09:54:31;;;;;;;53.97;23.70;;;0.10;99.90;;;;;;4966967;28;20043;-82
2024/01/19 09:56:59;;;;;;;35.13;15.98;;;0.10;99.90;;;;;;4950638;28;20061;-81
2024/01/19 09:59:24;;;;;;;51.33;24.15;;;0.10;99.90;;;;;;4963369;28;20038;-82
2024/01/19 10:01:50;;;;;;;38.72;14.10;;;0.10;99.90;;;;;;4950632;28;20044;-81
2024/01/19 10:04:16;;;;;;;47.90;22.48;;;0.20;99.90;;;;;;4963353;28;20038;-81
2024/01/19 10:06:42;;;;;;;61.28;27.70;;;0.20;99.90;;;;;;4966256;28;20168;-81
2024/01/19 10:09:08;;;;;;;49.45;22.55;;;0.20;99.90;;;;;;4966941;28;20107;-81
2024/01/19 10:11:33;;;;;;;56.67;23.45;;;0.20;99.90;;;;;;4952695;28;20042;-80
2024/01/19 10:13:59;;;;;;;66.75;31.38;;;0.10;99.90;;;;;;4966295;28;20034;-81
2024/01/19 10:16:24;;;;;;;51.63;22.60;;;0.20;99.90;;;;;;4954494;28;20034;-81
2024/01/19 10:18:50;;;;;;;56.13;26.75;;;0.20;99.90;;;;;;4961695;28;20042;-80
2024/01/19 10:21:28;;;;;;;28.30;15.00;;;0.20;99.90;;;;;;4954989;28;20029;-82
2024/01/19 10:24:11;;;;;;;48.97;22.95;;;0.20;99.90;;;;;;4957995;28;20416;-81
2024/01/19 10:26:39;;;;;;;37.30;18.85;;;0.20;99.90;;;;;;4963960;28;20030;-81
2024/01/19 10:29:15;;;;;;;40.53;19.00;;;0.30;99.90;;;;;;4968447;28;20404;-81
2024/01/19 10:31:41;;;;;;;32.83;12.93;;;0.30;99.90;;;;;;4983774;28;20143;-81
2024/01/19 10:34:20;;;;;;;37.83;18.08;;;0.30;99.90;;;;;;4969282;28;20057;-81
2024/01/19 10:36:46;;;;;;;42.75;18.52;;;0.20;99.90;;;;;;4984382;28;20511;-81
2024/01/19 10:39:25;;;;;;;45.95;21.27;;;0.20;99.90;;;;;;4940830;28;20061;-81
2024/01/19 10:41:51;;;;;;;43.47;19.73;;;0.30;99.90;;;;;;4981812;28;20037;-81
2024/01/19 10:44:20;;;;;;;29.08;13.55;;;0.30;99.90;;;;;;4966639;28;20057;-82
2024/01/19 10:46:46;;;;;;;53.30;23.65;;;0.30;99.90;;;;;;4954038;28;20044;-81
2024/01/19 10:49:13;;;;;;;39.40;19.52;;;0.30;99.90;;;;;;4964123;28;20034;-81
2024/01/19 10:51:43;;;;;;;62.03;31.85;;;0.30;99.90;;;;;;4979694;28;20040;-81
2024/01/19 10:54:15;;;;;;;37.30;16.02;;;0.30;99.90;;;;;;4967418;28;20096;-81
2024/01/19 10:56:42;;;;;;;33.30;14.55;;;0.30;99.90;;;;;;4954074;28;20117;-81
2024/01/19 10:59:11;;;;;;;50.28;23.83;;;0.40;99.90;;;;;;4940951;28;20037;-80
2024/01/19 11:01:37;;;;;;;30.33;13.73;;;0.40;99.90;;;;;;4971110;28;20030;-81
2024/01/19 11:04:05;;;;;;;44.15;18.77;;;0.40;99.90;;;;;;4956034;28;20063;-81
2024/01/19 11:06:31;;;;;;;35.47;15.90;;;0.40;99.90;;;;;;4967033;28;20148;-81
2024/01/19 11:08:56;;;;;;;46.17;21.45;;;0.40;99.90;;;;;;4949601;28;20050;-81
2024/01/19 11:11:22;;;;;;;24.33;11.20;;;0.40;99.90;;;;;;4966933;28;20500;-81
2024/01/19 11:13:47;;;;;;;42.92;18.27;;;0.40;99.90;;;;;;4950983;28;20536;-81
2024/01/19 11:16:20;;;;;;;31.52;13.20;;;0.40;99.90;;;;;;4951004;28;20030;-81
2024/01/19 11:18:45;;;;;;;43.25;21.02;;;0.40;99.90;;;;;;4966950;28;20053;-81
2024/01/19 11:21:11;;;;;;;41.45;19.65;;;0.40;99.90;;;;;;4937490;28;20022;-81
2024/01/19 11:23:37;;;;;;;32.40;16.20;;;0.40;99.90;;;;;;4969488;28;20033;-81
2024/01/19 11:26:18;;;;;;;48.17;24.23;;;0.40;99.90;;;;;;4952112;28;20029;-81
2024/01/19 11:29:11;;;;;;;46.67;24.27;;;0.40;99.90;;;;;;4982317;28;20030;-80
2024/01/19 11:31:38;;;;;;;42.92;19.48;;;0.50;99.90;;;;;;4991674;28;20077;-81
2024/01/19 11:34:05;;;;;;;33.42;14.70;;;0.50;99.90;;;;;;4979950;28;20507;-81
2024/01/19 11:36:39;;;;;;;35.60;15.60;;;0.50;99.90;;;;;;4946879;28;20034;-81
2024/01/19 11:39:05;;;;;;;30.55;15.02;;;0.50;99.90;;;;;;4984252;28;20460;-82
2024/01/19 11:41:33;;;;;;;31.60;15.02;;;0.60;99.90;;;;;;4952832;28;20037;-81
2024/01/19 11:44:03;;;;;;;39.00;21.45;;;0.50;99.90;;;;;;4994417;28;20045;-81
2024/01/19 11:46:47;;;;;;;42.53;18.88;;;0.60;99.90;;;;;;4950796;28;20029;-81
2024/01/19 11:49:51;;;;;;;42.88;20.85;;;0.70;99.90;;;;;;4952756;28;20508;-81
2024/01/19 11:52:20;;;;;;;39.28;18.20;;;0.70;99.90;;;;;;4981530;28;20034;-81
2024/01/19 11:54:45;;;;;;;31.40;13.65;;;0.70;99.90;;;;;;4979361;28;20022;-82
2024/01/19 11:57:31;;;;;;;39.00;17.92;;;0.70;99.90;;;;;;4946964;28;20546;-81
2024/01/19 11:59:57;;;;;;;40.85;19.45;;;0.80;99.90;;;;;;4961700;28;20113;-81
2024/01/19 12:02:31;;;;;;;26.65;11.13;;;0.90;99.90;;;;;;4952923;28;20114;-81
2024/01/19 12:04:58;;;;;;;36.83;16.52;;;0.90;99.90;;;;;;4951880;28;20519;-81
2024/01/19 12:07:23;;;;;;;23.52;11.35;;;1.00;99.90;;;;;;4964916;28;20039;-80
2024/01/19 12:10:08;;;;;;;27.63;14.07;;;1.00;99.90;;;;;;4947570;28;20562;-81
2024/01/19 12:12:34;;;;;;;27.13;11.77;;;1.00;99.90;;;;;;4966373;28;20045;-81
2024/01/19 12:15:07;;;;;;;43.75;23.20;;;1.10;99.90;;;;;;4962855;28;20042;-81
2024/01/19 12:17:34;;;;;;;38.17;16.92;;;1.20;99.90;;;;;;4951119;28;20058;-82
2024/01/19 12:20:00;;;;;;;35.58;16.85;;;1.10;99.90;;;;;;4963463;28;20517;-81
2024/01/19 12:22:26;;;;;;;13.05;5.88;;;1.10;99.90;;;;;;4951388;28;20055;-81
2024/01/19 12:24:52;;;;;;;18.95;9.57;;;1.30;99.90;;;;;;4952534;28;20492;-81
2024/01/19 12:27:20;;;;;;;20.40;10.95;;;1.40;99.90;;;;;;4961855;28;20037;-81